sensor_id;sensor_type;location;lat;lon;timestamp;P1;durP1;ratioP1;P2;durP2;ratioP2
3085;SDS011;52812;48.960;9.108;2022-12-05T00:01:26;31.93;;;13.60;;
3085;SDS011;52812;48.960;9.108;2022-12-05T00:03:55;28.03;;;13.00;;
3085;SDS011;52812;48.960;9.108;2022-12-05T00:06:23;30.37;;;13.07;;
3085;SDS011;52812;48.960;9.108;2022-12-05T00:08:50;26.33;;;13.70;;
3085;SDS011;52812;48.960;9.108;2022-12-05T00:11:17;30.03;;;13.13;;
3085;SDS011;52812;48.960;9.108;2022-12-05T00:13:46;26.60;;;13.00;;
3085;SDS011;52812;48.960;9.108;2022-12-05T00:16:14;27.60;;;13.40;;
3085;SDS011;52812;48.960;9.108;2022-12-05T00:18:42;27.33;;;14.00;;
3085;SDS011;52812;48.960;9.108;2022-12-05T00:21:12;25.33;;;13.57;;
3085;SDS011;52812;48.960;9.108;2022-12-05T00:23:43;26.00;;;12.67;;
3085;SDS011;52812;48.960;9.108;2022-12-05T00:26:09;28.67;;;13.53;;
3085;SDS011;52812;48.960;9.108;2022-12-05T00:28:35;24.43;;;12.47;;
3085;SDS011;52812;48.960;9.108;2022-12-05T00:31:04;25.47;;;12.47;;
3085;SDS011;52812;48.960;9.108;2022-12-05T00:33:35;25.93;;;12.73;;
3085;SDS011;52812;48.960;9.108;2022-12-05T00:36:05;26.07;;;13.07;;
3085;SDS011;52812;48.960;9.108;2022-12-05T00:38:33;28.80;;;14.00;;
3085;SDS011;52812;48.960;9.108;2022-12-05T00:41:03;25.40;;;13.43;;
3085;SDS011;52812;48.960;9.108;2022-12-05T00:43:29;26.87;;;14.00;;
3085;SDS011;52812;48.960;9.108;2022-12-05T00:45:55;29.97;;;14.33;;
3085;SDS011;52812;48.960;9.108;2022-12-05T00:48:24;25.37;;;12.27;;
3085;SDS011;52812;48.960;9.108;2022-12-05T00:50:49;27.20;;;13.77;;
3085;SDS011;52812;48.960;9.108;2022-12-05T00:53:15;24.90;;;13.23;;
3085;SDS011;52812;48.960;9.108;2022-12-05T00:55:40;24.70;;;12.37;;
3085;SDS011;52812;48.960;9.108;2022-12-05T00:58:06;24.47;;;12.60;;
3085;SDS011;52812;48.960;9.108;2022-12-05T01:00:31;25.77;;;12.90;;
3085;SDS011;52812;48.960;9.108;2022-12-05T01:02:57;28.47;;;14.80;;
3085;SDS011;52812;48.960;9.108;2022-12-05T01:05:22;25.47;;;12.70;;
3085;SDS011;52812;48.960;9.108;2022-12-05T01:07:48;25.40;;;12.23;;
3085;SDS011;52812;48.960;9.108;2022-12-05T01:10:14;23.87;;;12.90;;
3085;SDS011;52812;48.960;9.108;2022-12-05T01:12:39;26.20;;;13.70;;
3085;SDS011;52812;48.960;9.108;2022-12-05T01:15:05;26.43;;;13.90;;
3085;SDS011;52812;48.960;9.108;2022-12-05T01:17:31;28.23;;;12.97;;
3085;SDS011;52812;48.960;9.108;2022-12-05T01:19:57;22.37;;;12.53;;
3085;SDS011;52812;48.960;9.108;2022-12-05T01:22:22;25.17;;;12.27;;
3085;SDS011;52812;48.960;9.108;2022-12-05T01:24:48;21.30;;;11.60;;
3085;SDS011;52812;48.960;9.108;2022-12-05T01:27:13;22.87;;;12.03;;
3085;SDS011;52812;48.960;9.108;2022-12-05T01:29:39;26.33;;;12.63;;
3085;SDS011;52812;48.960;9.108;2022-12-05T01:32:04;22.47;;;12.37;;
3085;SDS011;52812;48.960;9.108;2022-12-05T01:34:30;19.60;;;10.90;;
3085;SDS011;52812;48.960;9.108;2022-12-05T01:36:55;22.30;;;12.80;;
3085;SDS011;52812;48.960;9.108;2022-12-05T01:39:21;20.60;;;11.50;;
3085;SDS011;52812;48.960;9.108;2022-12-05T01:41:49;21.97;;;11.90;;
3085;SDS011;52812;48.960;9.108;2022-12-05T01:46:44;18.40;;;10.70;;
3085;SDS011;52812;48.960;9.108;2022-12-05T01:49:13;21.93;;;11.57;;
3085;SDS011;52812;48.960;9.108;2022-12-05T01:51:55;25.67;;;11.83;;
3085;SDS011;52812;48.960;9.108;2022-12-05T01:54:23;20.80;;;11.77;;
3085;SDS011;52812;48.960;9.108;2022-12-05T01:56:51;23.73;;;11.13;;
3085;SDS011;52812;48.960;9.108;2022-12-05T01:59:21;23.80;;;12.27;;
3085;SDS011;52812;48.960;9.108;2022-12-05T02:01:48;20.77;;;11.73;;
3085;SDS011;52812;48.960;9.108;2022-12-05T02:04:14;24.33;;;11.87;;
3085;SDS011;52812;48.960;9.108;2022-12-05T02:06:40;24.83;;;12.90;;
3085;SDS011;52812;48.960;9.108;2022-12-05T02:09:05;22.33;;;11.23;;
3085;SDS011;52812;48.960;9.108;2022-12-05T02:11:31;19.93;;;10.80;;
3085;SDS011;52812;48.960;9.108;2022-12-05T02:16:54;24.40;;;12.80;;
3085;SDS011;52812;48.960;9.108;2022-12-05T02:25:10;22.00;;;11.80;;
3085;SDS011;52812;48.960;9.108;2022-12-05T02:30:37;23.60;;;12.17;;
3085;SDS011;52812;48.960;9.108;2022-12-05T02:41:23;21.87;;;11.90;;
3085;SDS011;52812;48.960;9.108;2022-12-05T02:46:29;24.03;;;11.20;;
3085;SDS011;52812;48.960;9.108;2022-12-05T02:48:58;21.03;;;11.20;;
3085;SDS011;52812;48.960;9.108;2022-12-05T02:51:28;22.70;;;11.00;;
3085;SDS011;52812;48.960;9.108;2022-12-05T02:53:58;22.97;;;10.77;;
3085;SDS011;52812;48.960;9.108;2022-12-05T02:56:28;21.50;;;11.97;;
3085;SDS011;52812;48.960;9.108;2022-12-05T02:58:57;19.60;;;10.90;;
3085;SDS011;52812;48.960;9.108;2022-12-05T03:01:24;22.20;;;11.27;;
3085;SDS011;52812;48.960;9.108;2022-12-05T03:03:52;20.10;;;10.87;;
3085;SDS011;52812;48.960;9.108;2022-12-05T03:06:20;20.87;;;11.37;;
3085;SDS011;52812;48.960;9.108;2022-12-05T03:08:54;19.80;;;10.50;;
3085;SDS011;52812;48.960;9.108;2022-12-05T03:11:21;20.97;;;10.37;;
3085;SDS011;52812;48.960;9.108;2022-12-05T03:13:48;22.07;;;11.50;;
3085;SDS011;52812;48.960;9.108;2022-12-05T03:16:24;21.73;;;11.47;;
3085;SDS011;52812;48.960;9.108;2022-12-05T03:18:57;18.87;;;10.50;;
3085;SDS011;52812;48.960;9.108;2022-12-05T03:21:35;19.83;;;10.93;;
3085;SDS011;52812;48.960;9.108;2022-12-05T03:24:08;20.80;;;11.30;;
3085;SDS011;52812;48.960;9.108;2022-12-05T03:26:43;20.27;;;10.53;;
3085;SDS011;52812;48.960;9.108;2022-12-05T03:35:01;18.70;;;10.30;;
3085;SDS011;52812;48.960;9.108;2022-12-05T03:37:44;19.67;;;10.10;;
3085;SDS011;52812;48.960;9.108;2022-12-05T03:40:26;17.17;;;9.60;;
3085;SDS011;52812;48.960;9.108;2022-12-05T03:43:08;20.43;;;10.30;;
3085;SDS011;52812;48.960;9.108;2022-12-05T03:51:03;23.10;;;11.00;;
3085;SDS011;52812;48.960;9.108;2022-12-05T03:53:46;20.40;;;11.47;;
3085;SDS011;52812;48.960;9.108;2022-12-05T03:56:17;19.17;;;10.60;;
3085;SDS011;52812;48.960;9.108;2022-12-05T03:58:57;18.57;;;10.13;;
3085;SDS011;52812;48.960;9.108;2022-12-05T04:01:31;19.03;;;9.73;;
3085;SDS011;52812;48.960;9.108;2022-12-05T04:04:02;22.73;;;11.43;;
3085;SDS011;52812;48.960;9.108;2022-12-05T04:06:35;17.73;;;10.20;;
3085;SDS011;52812;48.960;9.108;2022-12-05T04:09:08;20.90;;;10.60;;
3085;SDS011;52812;48.960;9.108;2022-12-05T04:11:38;17.50;;;9.50;;
3085;SDS011;52812;48.960;9.108;2022-12-05T04:14:15;19.80;;;10.63;;
3085;SDS011;52812;48.960;9.108;2022-12-05T04:16:50;27.43;;;12.77;;
3085;SDS011;52812;48.960;9.108;2022-12-05T04:19:37;18.50;;;9.70;;
3085;SDS011;52812;48.960;9.108;2022-12-05T04:22:37;19.80;;;9.97;;
3085;SDS011;52812;48.960;9.108;2022-12-05T04:25:04;18.30;;;9.40;;
3085;SDS011;52812;48.960;9.108;2022-12-05T04:27:58;18.33;;;10.57;;
3085;SDS011;52812;48.960;9.108;2022-12-05T04:30:45;20.93;;;10.83;;
3085;SDS011;52812;48.960;9.108;2022-12-05T04:33:15;21.03;;;11.10;;
3085;SDS011;52812;48.960;9.108;2022-12-05T04:35:52;20.60;;;10.80;;
3085;SDS011;52812;48.960;9.108;2022-12-05T04:39:05;22.40;;;10.90;;
3085;SDS011;52812;48.960;9.108;2022-12-05T04:41:17;21.50;;;11.17;;
3085;SDS011;52812;48.960;9.108;2022-12-05T04:43:46;21.13;;;10.57;;
3085;SDS011;52812;48.960;9.108;2022-12-05T04:46:14;18.87;;;11.57;;
3085;SDS011;52812;48.960;9.108;2022-12-05T04:48:43;19.77;;;10.60;;
3085;SDS011;52812;48.960;9.108;2022-12-05T04:51:14;18.97;;;10.80;;
3085;SDS011;52812;48.960;9.108;2022-12-05T04:53:42;20.87;;;11.03;;
3085;SDS011;52812;48.960;9.108;2022-12-05T04:56:10;21.00;;;11.23;;
3085;SDS011;52812;48.960;9.108;2022-12-05T04:58:40;20.07;;;11.20;;
3085;SDS011;52812;48.960;9.108;2022-12-05T05:06:12;17.90;;;10.13;;
3085;SDS011;52812;48.960;9.108;2022-12-05T05:08:49;18.70;;;10.43;;
3085;SDS011;52812;48.960;9.108;2022-12-05T05:11:18;19.50;;;10.83;;
3085;SDS011;52812;48.960;9.108;2022-12-05T05:13:44;19.17;;;10.17;;
3085;SDS011;52812;48.960;9.108;2022-12-05T05:16:13;20.63;;;10.63;;
3085;SDS011;52812;48.960;9.108;2022-12-05T05:18:42;19.63;;;10.13;;
3085;SDS011;52812;48.960;9.108;2022-12-05T05:21:13;19.87;;;10.20;;
3085;SDS011;52812;48.960;9.108;2022-12-05T05:23:44;22.70;;;11.10;;
3085;SDS011;52812;48.960;9.108;2022-12-05T05:26:09;21.17;;;10.00;;
3085;SDS011;52812;48.960;9.108;2022-12-05T05:28:35;18.67;;;10.43;;
3085;SDS011;52812;48.960;9.108;2022-12-05T05:31:01;18.53;;;9.93;;
3085;SDS011;52812;48.960;9.108;2022-12-05T05:33:27;20.30;;;10.43;;
3085;SDS011;52812;48.960;9.108;2022-12-05T05:35:54;19.60;;;10.93;;
3085;SDS011;52812;48.960;9.108;2022-12-05T05:38:19;19.37;;;11.20;;
3085;SDS011;52812;48.960;9.108;2022-12-05T05:40:45;19.50;;;10.43;;
3085;SDS011;52812;48.960;9.108;2022-12-05T05:43:10;22.00;;;11.77;;
3085;SDS011;52812;48.960;9.108;2022-12-05T05:45:36;20.27;;;10.57;;
3085;SDS011;52812;48.960;9.108;2022-12-05T05:48:01;18.17;;;10.70;;
3085;SDS011;52812;48.960;9.108;2022-12-05T05:50:27;19.20;;;10.37;;
3085;SDS011;52812;48.960;9.108;2022-12-05T05:52:53;19.70;;;10.47;;
3085;SDS011;52812;48.960;9.108;2022-12-05T05:55:19;21.87;;;11.57;;
3085;SDS011;52812;48.960;9.108;2022-12-05T05:57:44;20.77;;;11.27;;
3085;SDS011;52812;48.960;9.108;2022-12-05T06:00:10;21.50;;;11.50;;
3085;SDS011;52812;48.960;9.108;2022-12-05T06:02:36;21.30;;;11.53;;
3085;SDS011;52812;48.960;9.108;2022-12-05T06:05:02;22.17;;;11.63;;
3085;SDS011;52812;48.960;9.108;2022-12-05T06:07:28;20.97;;;10.97;;
3085;SDS011;52812;48.960;9.108;2022-12-05T06:09:54;19.33;;;11.40;;
3085;SDS011;52812;48.960;9.108;2022-12-05T06:12:19;24.60;;;12.53;;
3085;SDS011;52812;48.960;9.108;2022-12-05T06:14:48;21.10;;;11.43;;
3085;SDS011;52812;48.960;9.108;2022-12-05T06:17:14;21.23;;;11.07;;
3085;SDS011;52812;48.960;9.108;2022-12-05T06:19:40;19.00;;;10.90;;
3085;SDS011;52812;48.960;9.108;2022-12-05T06:22:06;21.97;;;11.10;;
3085;SDS011;52812;48.960;9.108;2022-12-05T06:24:32;20.30;;;11.90;;
3085;SDS011;52812;48.960;9.108;2022-12-05T06:26:57;22.43;;;12.10;;
3085;SDS011;52812;48.960;9.108;2022-12-05T06:29:23;22.43;;;10.93;;
3085;SDS011;52812;48.960;9.108;2022-12-05T06:31:49;22.37;;;12.00;;
3085;SDS011;52812;48.960;9.108;2022-12-05T06:34:15;23.80;;;12.03;;
3085;SDS011;52812;48.960;9.108;2022-12-05T06:36:42;23.07;;;12.50;;
3085;SDS011;52812;48.960;9.108;2022-12-05T06:39:09;23.87;;;12.20;;
3085;SDS011;52812;48.960;9.108;2022-12-05T06:41:35;19.80;;;10.93;;
3085;SDS011;52812;48.960;9.108;2022-12-05T06:44:01;22.45;;;11.63;;
3085;SDS011;52812;48.960;9.108;2022-12-05T06:46:28;24.40;;;12.23;;
3085;SDS011;52812;48.960;9.108;2022-12-05T06:48:55;20.77;;;12.00;;
3085;SDS011;52812;48.960;9.108;2022-12-05T06:51:22;22.10;;;12.20;;
3085;SDS011;52812;48.960;9.108;2022-12-05T06:53:48;20.53;;;11.80;;
3085;SDS011;52812;48.960;9.108;2022-12-05T06:56:15;20.70;;;11.60;;
3085;SDS011;52812;48.960;9.108;2022-12-05T06:58:43;23.40;;;11.40;;
3085;SDS011;52812;48.960;9.108;2022-12-05T07:01:11;22.57;;;12.47;;
3085;SDS011;52812;48.960;9.108;2022-12-05T07:04:00;22.87;;;12.10;;
3085;SDS011;52812;48.960;9.108;2022-12-05T07:06:26;21.90;;;11.27;;
3085;SDS011;52812;48.960;9.108;2022-12-05T07:08:52;23.47;;;12.23;;
3085;SDS011;52812;48.960;9.108;2022-12-05T07:11:17;21.40;;;11.90;;
3085;SDS011;52812;48.960;9.108;2022-12-05T07:13:43;20.97;;;10.90;;
3085;SDS011;52812;48.960;9.108;2022-12-05T07:16:09;21.97;;;11.40;;
3085;SDS011;52812;48.960;9.108;2022-12-05T07:18:35;21.50;;;11.67;;
3085;SDS011;52812;48.960;9.108;2022-12-05T07:21:01;21.00;;;12.70;;
3085;SDS011;52812;48.960;9.108;2022-12-05T07:23:29;22.43;;;11.73;;
3085;SDS011;52812;48.960;9.108;2022-12-05T07:25:56;21.37;;;11.23;;
3085;SDS011;52812;48.960;9.108;2022-12-05T07:28:22;20.37;;;11.63;;
3085;SDS011;52812;48.960;9.108;2022-12-05T07:30:48;22.40;;;12.73;;
3085;SDS011;52812;48.960;9.108;2022-12-05T07:33:27;23.43;;;11.90;;
3085;SDS011;52812;48.960;9.108;2022-12-05T07:35:57;21.80;;;11.70;;
3085;SDS011;52812;48.960;9.108;2022-12-05T07:38:26;25.67;;;13.57;;
3085;SDS011;52812;48.960;9.108;2022-12-05T07:40:52;23.90;;;12.60;;
3085;SDS011;52812;48.960;9.108;2022-12-05T07:43:18;25.67;;;14.43;;
3085;SDS011;52812;48.960;9.108;2022-12-05T07:45:44;28.87;;;14.10;;
3085;SDS011;52812;48.960;9.108;2022-12-05T07:48:09;26.63;;;16.70;;
3085;SDS011;52812;48.960;9.108;2022-12-05T07:50:35;31.80;;;19.73;;
3085;SDS011;52812;48.960;9.108;2022-12-05T07:53:01;25.20;;;13.90;;
3085;SDS011;52812;48.960;9.108;2022-12-05T07:55:26;27.07;;;13.07;;
3085;SDS011;52812;48.960;9.108;2022-12-05T07:57:52;21.47;;;11.60;;
3085;SDS011;52812;48.960;9.108;2022-12-05T08:00:18;24.70;;;12.80;;
3085;SDS011;52812;48.960;9.108;2022-12-05T08:02:44;21.77;;;12.60;;
3085;SDS011;52812;48.960;9.108;2022-12-05T08:05:09;21.10;;;12.20;;
3085;SDS011;52812;48.960;9.108;2022-12-05T08:07:35;25.23;;;12.07;;
3085;SDS011;52812;48.960;9.108;2022-12-05T08:10:00;25.70;;;13.20;;
3085;SDS011;52812;48.960;9.108;2022-12-05T08:12:26;23.53;;;12.60;;
3085;SDS011;52812;48.960;9.108;2022-12-05T08:14:51;26.60;;;14.17;;
3085;SDS011;52812;48.960;9.108;2022-12-05T08:17:17;23.03;;;12.90;;
3085;SDS011;52812;48.960;9.108;2022-12-05T08:19:42;26.97;;;13.97;;
3085;SDS011;52812;48.960;9.108;2022-12-05T08:22:08;22.63;;;13.37;;
3085;SDS011;52812;48.960;9.108;2022-12-05T08:24:34;24.03;;;13.50;;
3085;SDS011;52812;48.960;9.108;2022-12-05T08:26:59;26.37;;;13.60;;
3085;SDS011;52812;48.960;9.108;2022-12-05T08:29:25;27.60;;;14.70;;
3085;SDS011;52812;48.960;9.108;2022-12-05T08:31:50;29.53;;;15.80;;
3085;SDS011;52812;48.960;9.108;2022-12-05T08:34:17;27.17;;;14.80;;
3085;SDS011;52812;48.960;9.108;2022-12-05T08:36:44;25.60;;;14.40;;
3085;SDS011;52812;48.960;9.108;2022-12-05T08:39:15;25.33;;;13.83;;
3085;SDS011;52812;48.960;9.108;2022-12-05T08:41:42;25.50;;;13.90;;
3085;SDS011;52812;48.960;9.108;2022-12-05T08:44:10;25.10;;;14.63;;
3085;SDS011;52812;48.960;9.108;2022-12-05T08:46:44;23.23;;;13.37;;
3085;SDS011;52812;48.960;9.108;2022-12-05T08:49:14;26.87;;;14.70;;
3085;SDS011;52812;48.960;9.108;2022-12-05T08:51:41;25.93;;;13.53;;
3085;SDS011;52812;48.960;9.108;2022-12-05T08:54:07;28.70;;;14.43;;
3085;SDS011;52812;48.960;9.108;2022-12-05T08:56:33;30.30;;;14.50;;
3085;SDS011;52812;48.960;9.108;2022-12-05T08:58:58;23.07;;;13.97;;
3085;SDS011;52812;48.960;9.108;2022-12-05T09:01:26;25.97;;;14.00;;
3085;SDS011;52812;48.960;9.108;2022-12-05T09:03:55;26.80;;;13.67;;
3085;SDS011;52812;48.960;9.108;2022-12-05T09:06:24;24.30;;;13.30;;
3085;SDS011;52812;48.960;9.108;2022-12-05T09:08:55;23.50;;;13.17;;
3085;SDS011;52812;48.960;9.108;2022-12-05T09:11:23;29.53;;;15.53;;
3085;SDS011;52812;48.960;9.108;2022-12-05T09:13:50;27.77;;;15.90;;
3085;SDS011;52812;48.960;9.108;2022-12-05T09:16:22;25.93;;;14.23;;
3085;SDS011;52812;48.960;9.108;2022-12-05T09:18:49;28.37;;;14.50;;
3085;SDS011;52812;48.960;9.108;2022-12-05T09:21:17;28.10;;;13.90;;
3085;SDS011;52812;48.960;9.108;2022-12-05T09:23:44;27.43;;;14.23;;
3085;SDS011;52812;48.960;9.108;2022-12-05T09:26:11;25.63;;;13.37;;
3085;SDS011;52812;48.960;9.108;2022-12-05T09:28:39;22.03;;;13.20;;
3085;SDS011;52812;48.960;9.108;2022-12-05T09:31:06;26.77;;;13.80;;
3085;SDS011;52812;48.960;9.108;2022-12-05T09:33:34;25.27;;;14.37;;
3085;SDS011;52812;48.960;9.108;2022-12-05T09:36:05;24.33;;;13.53;;
3085;SDS011;52812;48.960;9.108;2022-12-05T09:38:32;25.70;;;14.43;;
3085;SDS011;52812;48.960;9.108;2022-12-05T09:43:51;25.23;;;13.67;;
3085;SDS011;52812;48.960;9.108;2022-12-05T09:46:35;23.00;;;12.93;;
3085;SDS011;52812;48.960;9.108;2022-12-05T09:49:26;26.77;;;13.50;;
3085;SDS011;52812;48.960;9.108;2022-12-05T09:52:00;25.47;;;13.67;;
3085;SDS011;52812;48.960;9.108;2022-12-05T09:54:27;24.83;;;14.27;;
3085;SDS011;52812;48.960;9.108;2022-12-05T09:56:57;24.63;;;13.47;;
3085;SDS011;52812;48.960;9.108;2022-12-05T09:59:24;22.00;;;13.23;;
3085;SDS011;52812;48.960;9.108;2022-12-05T10:01:52;23.67;;;13.50;;
3085;SDS011;52812;48.960;9.108;2022-12-05T10:12:36;25.97;;;13.70;;
3085;SDS011;52812;48.960;9.108;2022-12-05T10:15:41;25.80;;;14.77;;
3085;SDS011;52812;48.960;9.108;2022-12-05T10:18:26;24.60;;;13.87;;
3085;SDS011;52812;48.960;9.108;2022-12-05T10:21:01;25.70;;;14.63;;
3085;SDS011;52812;48.960;9.108;2022-12-05T10:26:20;22.77;;;13.43;;
3085;SDS011;52812;48.960;9.108;2022-12-05T10:31:29;26.10;;;14.57;;
3085;SDS011;52812;48.960;9.108;2022-12-05T10:34:43;23.67;;;13.20;;
3085;SDS011;52812;48.960;9.108;2022-12-05T10:36:54;28.13;;;15.07;;
3085;SDS011;52812;48.960;9.108;2022-12-05T10:39:22;22.27;;;13.60;;
3085;SDS011;52812;48.960;9.108;2022-12-05T10:41:48;25.60;;;13.50;;
3085;SDS011;52812;48.960;9.108;2022-12-05T10:44:14;22.83;;;13.60;;
3085;SDS011;52812;48.960;9.108;2022-12-05T10:46:39;24.80;;;13.93;;
3085;SDS011;52812;48.960;9.108;2022-12-05T10:49:10;23.80;;;14.03;;
3085;SDS011;52812;48.960;9.108;2022-12-05T10:51:36;28.40;;;16.70;;
3085;SDS011;52812;48.960;9.108;2022-12-05T10:54:08;24.70;;;14.80;;
3085;SDS011;52812;48.960;9.108;2022-12-05T10:56:50;27.83;;;14.90;;
3085;SDS011;52812;48.960;9.108;2022-12-05T10:59:18;26.93;;;16.33;;
3085;SDS011;52812;48.960;9.108;2022-12-05T11:01:56;23.50;;;14.63;;
3085;SDS011;52812;48.960;9.108;2022-12-05T11:07:28;27.60;;;14.07;;
3085;SDS011;52812;48.960;9.108;2022-12-05T11:09:56;21.57;;;13.50;;
3085;SDS011;52812;48.960;9.108;2022-12-05T11:12:26;24.27;;;14.47;;
3085;SDS011;52812;48.960;9.108;2022-12-05T11:15:05;25.80;;;13.37;;
3085;SDS011;52812;48.960;9.108;2022-12-05T11:17:43;22.37;;;11.83;;
3085;SDS011;52812;48.960;9.108;2022-12-05T11:20:32;24.00;;;13.07;;
3085;SDS011;52812;48.960;9.108;2022-12-05T11:22:55;24.73;;;13.60;;
3085;SDS011;52812;48.960;9.108;2022-12-05T11:25:44;20.83;;;12.70;;
3085;SDS011;52812;48.960;9.108;2022-12-05T11:28:51;26.00;;;13.73;;
3085;SDS011;52812;48.960;9.108;2022-12-05T11:31:05;20.43;;;12.67;;
3085;SDS011;52812;48.960;9.108;2022-12-05T11:33:40;23.37;;;13.40;;
3085;SDS011;52812;48.960;9.108;2022-12-05T11:36:13;21.57;;;13.13;;
3085;SDS011;52812;48.960;9.108;2022-12-05T11:38:43;29.60;;;13.60;;
3085;SDS011;52812;48.960;9.108;2022-12-05T11:57:17;20.70;;;12.60;;
3085;SDS011;52812;48.960;9.108;2022-12-05T12:00:08;17.37;;;10.90;;
3085;SDS011;52812;48.960;9.108;2022-12-05T12:02:43;17.57;;;9.90;;
3085;SDS011;52812;48.960;9.108;2022-12-05T12:13:51;20.43;;;11.53;;
3085;SDS011;52812;48.960;9.108;2022-12-05T12:16:54;16.27;;;11.13;;
3085;SDS011;52812;48.960;9.108;2022-12-05T12:31:04;17.43;;;9.80;;
3085;SDS011;52812;48.960;9.108;2022-12-05T12:35:48;18.30;;;11.90;;
3085;SDS011;52812;48.960;9.108;2022-12-05T12:41:14;16.67;;;10.43;;
3085;SDS011;52812;48.960;9.108;2022-12-05T12:46:31;16.50;;;10.70;;
3085;SDS011;52812;48.960;9.108;2022-12-05T12:52:01;18.20;;;10.63;;
3085;SDS011;52812;48.960;9.108;2022-12-05T12:57:41;16.37;;;10.30;;
3085;SDS011;52812;48.960;9.108;2022-12-05T13:00:26;17.60;;;10.50;;
3085;SDS011;52812;48.960;9.108;2022-12-05T13:02:56;15.17;;;10.17;;
3085;SDS011;52812;48.960;9.108;2022-12-05T13:08:10;14.80;;;9.60;;
3085;SDS011;52812;48.960;9.108;2022-12-05T13:10:53;16.83;;;10.20;;
3085;SDS011;52812;48.960;9.108;2022-12-05T13:13:23;13.83;;;9.50;;
3085;SDS011;52812;48.960;9.108;2022-12-05T13:15:53;15.47;;;9.03;;
3085;SDS011;52812;48.960;9.108;2022-12-05T13:18:24;14.60;;;9.70;;
3085;SDS011;52812;48.960;9.108;2022-12-05T13:20:54;15.67;;;9.73;;
3085;SDS011;52812;48.960;9.108;2022-12-05T13:23:22;15.87;;;10.03;;
3085;SDS011;52812;48.960;9.108;2022-12-05T13:25:51;16.60;;;10.00;;
3085;SDS011;52812;48.960;9.108;2022-12-05T13:28:35;14.70;;;9.90;;
3085;SDS011;52812;48.960;9.108;2022-12-05T13:31:34;18.07;;;10.70;;
3085;SDS011;52812;48.960;9.108;2022-12-05T13:34:04;14.40;;;9.90;;
3085;SDS011;52812;48.960;9.108;2022-12-05T13:36:37;18.00;;;11.97;;
3085;SDS011;52812;48.960;9.108;2022-12-05T13:39:23;17.37;;;10.67;;
3085;SDS011;52812;48.960;9.108;2022-12-05T13:42:20;18.77;;;11.53;;
3085;SDS011;52812;48.960;9.108;2022-12-05T13:44:54;20.60;;;13.30;;
3085;SDS011;52812;48.960;9.108;2022-12-05T13:50:18;18.87;;;12.93;;
3085;SDS011;52812;48.960;9.108;2022-12-05T13:53:03;20.73;;;12.00;;
3085;SDS011;52812;48.960;9.108;2022-12-05T13:55:56;21.57;;;13.20;;
3085;SDS011;52812;48.960;9.108;2022-12-05T14:00:50;16.77;;;11.07;;
3085;SDS011;52812;48.960;9.108;2022-12-05T14:07:07;20.97;;;12.40;;
3085;SDS011;52812;48.960;9.108;2022-12-05T14:17:19;17.33;;;11.60;;
3085;SDS011;52812;48.960;9.108;2022-12-05T14:19:57;19.27;;;11.57;;
3085;SDS011;52812;48.960;9.108;2022-12-05T14:25:42;19.70;;;14.20;;
3085;SDS011;52812;48.960;9.108;2022-12-05T14:28:27;17.20;;;11.67;;
3085;SDS011;52812;48.960;9.108;2022-12-05T14:34:23;20.00;;;11.20;;
3085;SDS011;52812;48.960;9.108;2022-12-05T14:42:24;18.30;;;10.57;;
3085;SDS011;52812;48.960;9.108;2022-12-05T14:44:51;18.10;;;11.07;;
3085;SDS011;52812;48.960;9.108;2022-12-05T14:47:23;16.90;;;10.37;;
3085;SDS011;52812;48.960;9.108;2022-12-05T14:52:26;17.57;;;10.90;;
3085;SDS011;52812;48.960;9.108;2022-12-05T14:54:57;18.50;;;12.27;;
3085;SDS011;52812;48.960;9.108;2022-12-05T14:57:26;17.10;;;10.70;;
3085;SDS011;52812;48.960;9.108;2022-12-05T14:59:57;18.33;;;10.97;;
3085;SDS011;52812;48.960;9.108;2022-12-05T15:02:31;17.47;;;10.93;;
3085;SDS011;52812;48.960;9.108;2022-12-05T15:05:17;18.57;;;10.83;;
3085;SDS011;52812;48.960;9.108;2022-12-05T15:07:49;16.27;;;10.70;;
3085;SDS011;52812;48.960;9.108;2022-12-05T15:18:17;25.20;;;17.13;;
3085;SDS011;52812;48.960;9.108;2022-12-05T15:23:39;20.20;;;12.70;;
3085;SDS011;52812;48.960;9.108;2022-12-05T15:26:15;18.40;;;12.20;;
3085;SDS011;52812;48.960;9.108;2022-12-05T15:28:55;27.80;;;17.50;;
3085;SDS011;52812;48.960;9.108;2022-12-05T15:31:43;21.10;;;13.17;;
3085;SDS011;52812;48.960;9.108;2022-12-05T15:34:12;19.97;;;11.07;;
3085;SDS011;52812;48.960;9.108;2022-12-05T15:36:44;17.07;;;11.30;;
3085;SDS011;52812;48.960;9.108;2022-12-05T15:39:21;23.80;;;14.63;;
3085;SDS011;52812;48.960;9.108;2022-12-05T15:41:50;24.07;;;14.47;;
3085;SDS011;52812;48.960;9.108;2022-12-05T15:44:17;25.10;;;14.90;;
3085;SDS011;52812;48.960;9.108;2022-12-05T15:46:43;22.13;;;14.03;;
3085;SDS011;52812;48.960;9.108;2022-12-05T15:49:43;24.43;;;15.03;;
3085;SDS011;52812;48.960;9.108;2022-12-05T15:52:18;21.23;;;13.90;;
3085;SDS011;52812;48.960;9.108;2022-12-05T15:54:50;24.13;;;14.53;;
3085;SDS011;52812;48.960;9.108;2022-12-05T15:57:19;22.53;;;13.13;;
3085;SDS011;52812;48.960;9.108;2022-12-05T16:00:04;20.00;;;11.40;;
3085;SDS011;52812;48.960;9.108;2022-12-05T16:03:38;17.50;;;11.13;;
3085;SDS011;52812;48.960;9.108;2022-12-05T16:05:38;16.77;;;11.23;;
3085;SDS011;52812;48.960;9.108;2022-12-05T16:08:13;17.10;;;11.10;;
3085;SDS011;52812;48.960;9.108;2022-12-05T16:10:39;16.87;;;11.03;;
3085;SDS011;52812;48.960;9.108;2022-12-05T16:13:14;19.87;;;12.40;;
3085;SDS011;52812;48.960;9.108;2022-12-05T16:15:42;19.40;;;11.10;;
3085;SDS011;52812;48.960;9.108;2022-12-05T16:18:21;20.00;;;11.83;;
3085;SDS011;52812;48.960;9.108;2022-12-05T16:20:56;19.90;;;12.53;;
3085;SDS011;52812;48.960;9.108;2022-12-05T16:23:26;35.70;;;16.67;;
3085;SDS011;52812;48.960;9.108;2022-12-05T16:26:20;35.00;;;16.57;;
3085;SDS011;52812;48.960;9.108;2022-12-05T16:28:58;25.33;;;14.67;;
3085;SDS011;52812;48.960;9.108;2022-12-05T16:31:25;24.03;;;13.40;;
3085;SDS011;52812;48.960;9.108;2022-12-05T16:33:59;24.73;;;14.17;;
3085;SDS011;52812;48.960;9.108;2022-12-05T16:36:28;20.40;;;12.60;;
3085;SDS011;52812;48.960;9.108;2022-12-05T16:39:03;26.77;;;13.80;;
3085;SDS011;52812;48.960;9.108;2022-12-05T16:41:31;22.80;;;14.47;;
3085;SDS011;52812;48.960;9.108;2022-12-05T16:44:01;25.90;;;14.83;;
3085;SDS011;52812;48.960;9.108;2022-12-05T16:49:16;28.27;;;16.27;;
3085;SDS011;52812;48.960;9.108;2022-12-05T16:51:58;24.57;;;15.17;;
3085;SDS011;52812;48.960;9.108;2022-12-05T16:54:33;24.13;;;14.63;;
3085;SDS011;52812;48.960;9.108;2022-12-05T16:57:00;25.97;;;15.77;;
3085;SDS011;52812;48.960;9.108;2022-12-05T16:59:34;22.17;;;15.20;;
3085;SDS011;52812;48.960;9.108;2022-12-05T17:02:02;24.37;;;14.77;;
3085;SDS011;52812;48.960;9.108;2022-12-05T17:04:31;27.80;;;15.20;;
3085;SDS011;52812;48.960;9.108;2022-12-05T17:06:56;28.07;;;15.97;;
3085;SDS011;52812;48.960;9.108;2022-12-05T17:09:23;26.93;;;16.40;;
3085;SDS011;52812;48.960;9.108;2022-12-05T17:11:49;24.50;;;15.80;;
3085;SDS011;52812;48.960;9.108;2022-12-05T17:14:18;27.67;;;16.10;;
3085;SDS011;52812;48.960;9.108;2022-12-05T17:16:44;25.03;;;15.30;;
3085;SDS011;52812;48.960;9.108;2022-12-05T17:19:10;90.20;;;43.70;;
3085;SDS011;52812;48.960;9.108;2022-12-05T17:21:36;97.67;;;49.70;;
3085;SDS011;52812;48.960;9.108;2022-12-05T17:24:02;97.33;;;52.50;;
3085;SDS011;52812;48.960;9.108;2022-12-05T17:26:28;98.60;;;51.60;;
3085;SDS011;52812;48.960;9.108;2022-12-05T17:28:54;82.17;;;47.47;;
3085;SDS011;52812;48.960;9.108;2022-12-05T17:31:21;43.70;;;28.23;;
3085;SDS011;52812;48.960;9.108;2022-12-05T17:33:48;51.40;;;30.30;;
3085;SDS011;52812;48.960;9.108;2022-12-05T17:36:14;69.40;;;41.30;;